createdAt,value
2017-05-05T00:01:54.765Z,2.00
2017-05-05T00:04:22.497Z,2.05
2017-05-05T00:06:50.250Z,2.03
2017-05-05T00:09:17.975Z,1.98
2017-05-05T00:11:46.473Z,1.85
2017-05-05T00:14:14.618Z,1.77
2017-05-05T00:16:42.345Z,1.63
2017-05-05T00:19:10.074Z,2.18
2017-05-05T00:21:38.421Z,1.62
2017-05-05T00:24:06.893Z,1.65
2017-05-05T00:26:34.630Z,1.53
2017-05-05T00:29:02.386Z,1.60
2017-05-05T00:31:30.121Z,1.63
2017-05-05T00:33:57.878Z,2.93
2017-05-05T00:36:26.747Z,2.05
2017-05-05T00:38:55.213Z,1.77
2017-05-05T00:41:22.941Z,1.50
2017-05-05T00:43:50.961Z,1.68
2017-05-05T00:46:19.434Z,2.83
2017-05-05T00:48:47.168Z,2.28
2017-05-05T00:51:15.073Z,1.75
2017-05-05T00:53:42.806Z,1.53
2017-05-05T00:56:10.529Z,1.73
2017-05-05T00:58:38.570Z,1.92
2017-05-05T01:01:07.046Z,2.05
2017-05-05T01:03:35.518Z,1.72
2017-05-05T01:06:03.598Z,1.38
2017-05-05T01:08:32.066Z,1.95
2017-05-05T01:10:59.797Z,2.10
2017-05-05T01:13:27.578Z,1.82
2017-05-05T01:15:55.328Z,1.63
2017-05-05T01:18:23.057Z,1.77
2017-05-05T01:20:50.813Z,1.87
2017-05-05T01:23:19.283Z,1.63
2017-05-05T01:25:47.769Z,1.53
2017-05-05T01:28:16.549Z,2.33
2017-05-05T01:30:45.030Z,1.90
2017-05-05T01:33:13.505Z,1.87
2017-05-05T01:35:41.998Z,1.82
2017-05-05T01:38:10.481Z,1.52
2017-05-05T01:40:39.039Z,1.88
2017-05-05T01:43:07.016Z,2.60
2017-05-05T01:45:34.747Z,1.90
2017-05-05T01:48:02.474Z,2.08
2017-05-05T01:50:30.259Z,2.03
2017-05-05T01:52:58.006Z,2.15
2017-05-05T01:55:25.734Z,2.38
2017-05-05T01:57:53.771Z,1.95
2017-05-05T02:00:21.873Z,2.78
2017-05-05T02:02:49.608Z,2.00
2017-05-05T02:05:17.371Z,2.10
2017-05-05T02:07:45.113Z,1.62
2017-05-05T02:10:12.841Z,2.03
2017-05-05T02:12:40.815Z,1.97
2017-05-05T02:15:08.547Z,2.42
2017-05-05T02:17:36.271Z,1.63
2017-05-05T02:20:04.293Z,1.80
2017-05-05T02:22:32.028Z,2.18
2017-05-05T02:24:59.761Z,2.12
2017-05-05T02:27:27.525Z,2.00
2017-05-05T02:29:55.259Z,1.90
2017-05-05T02:32:23.789Z,1.50
2017-05-05T02:34:51.884Z,2.17
2017-05-05T02:37:19.610Z,2.67
2017-05-05T02:39:47.338Z,1.67
2017-05-05T02:42:15.837Z,2.68
2017-05-05T02:44:43.566Z,2.55
2017-05-05T02:47:11.313Z,2.47
2017-05-05T02:49:39.405Z,2.03
2017-05-05T02:52:07.129Z,2.32
2017-05-05T02:54:34.857Z,2.50
2017-05-05T02:57:03.105Z,1.77
2017-05-05T02:59:30.829Z,2.72
2017-05-05T03:01:58.561Z,2.23
2017-05-05T03:04:27.433Z,2.18
2017-05-05T03:06:55.906Z,2.17
2017-05-05T03:09:24.382Z,2.23
2017-05-05T03:11:52.137Z,2.18
2017-05-05T03:14:19.883Z,2.40
2017-05-05T03:16:47.609Z,2.15
2017-05-05T03:19:15.549Z,2.33
2017-05-05T03:21:44.030Z,1.97
2017-05-05T03:24:12.502Z,2.67
2017-05-05T03:26:40.998Z,1.88
2017-05-05T03:29:08.739Z,2.43
2017-05-05T03:31:36.489Z,1.65
2017-05-05T03:34:04.785Z,2.45
2017-05-05T03:36:32.524Z,2.13
2017-05-05T03:39:00.253Z,1.93
2017-05-05T03:41:28.039Z,1.95
2017-05-05T03:43:55.774Z,2.68
2017-05-05T03:46:23.506Z,1.97
2017-05-05T03:48:52.025Z,2.23
2017-05-05T03:51:19.769Z,1.93
2017-05-05T03:53:47.505Z,3.10
2017-05-05T03:56:16.739Z,2.07
2017-05-05T03:58:44.472Z,2.08
2017-05-05T04:01:12.950Z,1.83
2017-05-05T04:03:40.706Z,3.20
2017-05-05T04:06:08.457Z,2.33
2017-05-05T04:08:36.189Z,2.22
2017-05-05T04:11:03.954Z,2.30
2017-05-05T04:13:31.716Z,2.30
2017-05-05T04:15:59.441Z,2.33
2017-05-05T04:18:27.565Z,2.33
2017-05-05T04:20:55.476Z,2.13
2017-05-05T04:23:23.210Z,1.98
2017-05-05T04:25:50.974Z,2.63
2017-05-05T04:28:18.735Z,2.60
2017-05-05T04:30:46.463Z,2.32
2017-05-05T04:33:14.445Z,1.97
2017-05-05T04:35:42.170Z,3.58
2017-05-05T04:38:09.904Z,2.40
2017-05-05T04:40:38.349Z,2.32
2017-05-05T04:43:06.205Z,2.22
2017-05-05T04:45:33.937Z,2.02
2017-05-05T04:48:02.666Z,2.42
2017-05-05T04:50:30.395Z,2.28
2017-05-05T04:52:58.130Z,2.52
2017-05-05T04:55:27.696Z,2.75
2017-05-05T04:57:55.421Z,2.55
2017-05-05T05:00:23.158Z,2.83
2017-05-05T05:02:50.948Z,2.93
2017-05-05T05:05:18.681Z,2.25
2017-05-05T05:07:46.410Z,2.63
2017-05-05T05:10:14.166Z,2.90
2017-05-05T05:12:41.945Z,3.50
2017-05-05T05:15:10.414Z,2.65
2017-05-05T05:17:38.291Z,2.60
2017-05-05T05:20:06.762Z,3.42
2017-05-05T05:22:34.493Z,4.27
2017-05-05T05:25:02.241Z,2.98
2017-05-05T05:27:29.966Z,1.95
2017-05-05T05:29:58.449Z,1.98
2017-05-05T05:32:27.127Z,2.20
2017-05-05T05:34:54.854Z,2.10
2017-05-05T05:37:22.590Z,3.08
2017-05-05T05:39:50.525Z,2.10
2017-05-05T05:42:18.994Z,2.58
2017-05-05T05:44:46.911Z,2.42
2017-05-05T05:47:14.937Z,1.97
2017-05-05T05:49:42.672Z,2.33
2017-05-05T05:52:10.404Z,2.65
2017-05-05T05:54:38.162Z,2.97
2017-05-05T05:57:05.925Z,2.60
2017-05-05T05:59:33.655Z,3.05
2017-05-05T06:02:02.153Z,2.83
2017-05-05T06:04:30.650Z,2.32
2017-05-05T06:06:58.377Z,2.90
2017-05-05T06:09:26.349Z,2.37
2017-05-05T06:11:54.086Z,1.80
2017-05-05T06:14:21.817Z,3.72
2017-05-05T06:16:49.840Z,2.45
2017-05-05T06:19:17.581Z,3.08
2017-05-05T06:21:45.310Z,1.82
2017-05-05T06:24:13.340Z,2.33
2017-05-05T06:26:41.089Z,2.20
2017-05-05T06:29:08.815Z,2.13
2017-05-05T06:31:36.745Z,2.48
2017-05-05T06:34:05.245Z,2.18
2017-05-05T06:36:32.990Z,2.77
2017-05-05T06:39:01.062Z,1.90
2017-05-05T06:41:29.534Z,2.37
2017-05-05T06:43:57.277Z,2.47
2017-05-05T06:46:25.556Z,2.80
2017-05-05T06:48:53.299Z,2.32
2017-05-05T06:51:21.033Z,2.70
2017-05-05T06:53:48.756Z,2.80
2017-05-05T06:56:16.480Z,2.05
2017-05-05T06:58:44.200Z,1.87
2017-05-05T07:01:12.666Z,2.43
2017-05-05T07:03:40.380Z,2.63
2017-05-05T07:06:08.188Z,2.25
2017-05-05T07:08:35.904Z,2.42
2017-05-05T07:11:03.647Z,2.30
2017-05-05T07:13:31.380Z,3.02
2017-05-05T07:15:59.128Z,2.62
2017-05-05T07:18:26.891Z,2.25
2017-05-05T07:20:54.641Z,2.70
2017-05-05T07:23:22.364Z,2.08
2017-05-05T07:25:50.108Z,2.58
2017-05-05T07:28:17.846Z,2.53
2017-05-05T07:30:45.568Z,2.32
2017-05-05T07:33:13.320Z,1.80
2017-05-05T07:35:41.046Z,2.83
2017-05-05T07:38:08.780Z,2.58
2017-05-05T07:40:36.875Z,3.58
2017-05-05T07:43:04.595Z,2.97
2017-05-05T07:45:32.311Z,2.68
2017-05-05T07:48:00.371Z,2.20
2017-05-05T07:50:28.087Z,2.22
2017-05-05T07:52:55.812Z,2.68
2017-05-05T07:55:24.628Z,3.35
2017-05-05T07:57:52.347Z,1.93
2017-05-05T08:00:20.079Z,2.30
2017-05-05T08:02:47.837Z,2.60
2017-05-05T08:05:15.564Z,3.20
2017-05-05T08:07:44.020Z,2.83
2017-05-05T08:10:11.855Z,2.45
2017-05-05T08:12:39.588Z,2.92
2017-05-05T08:15:07.316Z,2.87
2017-05-05T08:17:35.082Z,2.35
2017-05-05T08:20:02.824Z,2.53
2017-05-05T08:22:30.575Z,2.62
2017-05-05T08:24:58.585Z,2.55
2017-05-05T08:27:26.310Z,2.50
2017-05-05T08:29:54.038Z,2.45
2017-05-05T08:32:21.969Z,2.50
2017-05-05T08:34:49.696Z,2.45
2017-05-05T08:37:17.425Z,2.63
2017-05-05T08:39:45.343Z,2.42
2017-05-05T08:42:13.064Z,2.30
2017-05-05T08:44:40.789Z,2.50
2017-05-05T08:47:08.535Z,3.05
2017-05-05T08:49:37.171Z,2.92
2017-05-05T08:52:04.923Z,3.33
2017-05-05T08:54:33.418Z,3.45
2017-05-05T08:57:01.146Z,2.67
2017-05-05T08:59:28.891Z,2.88
2017-05-05T09:01:56.873Z,2.50
2017-05-05T09:04:24.614Z,2.45
2017-05-05T09:06:52.349Z,2.40
2017-05-05T09:09:20.396Z,2.55
2017-05-05T09:11:48.860Z,3.40
2017-05-05T09:14:17.355Z,2.92
2017-05-05T09:16:46.883Z,3.57
2017-05-05T09:19:14.605Z,2.92
2017-05-05T09:21:42.328Z,2.35
2017-05-05T09:24:10.096Z,2.55
2017-05-05T09:26:37.815Z,3.17
2017-05-05T09:29:06.275Z,2.75
2017-05-05T09:31:34.147Z,3.37
2017-05-05T09:34:01.864Z,2.87
2017-05-05T09:36:29.594Z,2.70
2017-05-05T09:38:57.736Z,3.88
2017-05-05T09:41:25.471Z,2.95
2017-05-05T09:43:53.192Z,2.85
2017-05-05T09:46:20.931Z,3.98
2017-05-05T09:48:48.679Z,3.52
2017-05-05T09:51:16.553Z,3.02
2017-05-05T09:53:44.332Z,4.47
2017-05-05T09:56:12.810Z,3.43
2017-05-05T09:58:40.527Z,3.05
2017-05-05T10:01:09.732Z,2.77
2017-05-05T10:03:37.458Z,4.02
2017-05-05T10:06:05.196Z,3.35
2017-05-05T10:08:33.684Z,3.65
2017-05-05T10:11:02.165Z,3.58
2017-05-05T10:13:30.635Z,4.30
2017-05-05T10:15:58.372Z,4.02
2017-05-05T10:18:26.103Z,3.62
2017-05-05T10:20:53.881Z,3.60
2017-05-05T10:23:21.897Z,3.78
2017-05-05T10:25:49.620Z,3.60
2017-05-05T10:28:17.349Z,3.17
2017-05-05T10:30:45.096Z,4.02
2017-05-05T10:33:13.568Z,2.92
2017-05-05T10:35:42.055Z,4.12
2017-05-05T10:38:10.729Z,3.68
2017-05-05T10:40:38.440Z,3.25
2017-05-05T10:43:06.160Z,3.05
2017-05-05T10:45:34.640Z,4.65
2017-05-05T10:48:02.360Z,3.12
2017-05-05T10:50:30.103Z,3.32
2017-05-05T10:52:59.062Z,3.52
2017-05-05T10:55:27.521Z,4.02
2017-05-05T10:57:55.240Z,3.65
2017-05-05T11:00:23.160Z,5.33
2017-05-05T11:02:50.877Z,3.23
2017-05-05T11:05:18.601Z,3.42
2017-05-05T11:07:46.541Z,4.43
2017-05-05T11:10:14.269Z,3.70
2017-05-05T11:12:41.988Z,3.63
2017-05-05T11:15:09.729Z,4.65
2017-05-05T11:17:37.452Z,3.00
2017-05-05T11:20:05.204Z,4.18
2017-05-05T11:22:32.954Z,2.82
2017-05-05T11:25:01.411Z,3.75
2017-05-05T11:27:29.148Z,3.82
2017-05-05T11:29:57.043Z,4.13
2017-05-05T11:32:24.764Z,3.45
2017-05-05T11:34:52.487Z,3.37
2017-05-05T11:37:21.258Z,3.82
2017-05-05T11:39:49.009Z,3.30
2017-05-05T11:42:16.735Z,3.88
2017-05-05T11:44:44.476Z,2.68
2017-05-05T11:47:12.200Z,3.42
2017-05-05T11:49:39.944Z,3.35
2017-05-05T11:52:07.838Z,3.33
2017-05-05T11:54:35.561Z,3.73
2017-05-05T11:57:03.287Z,3.43
2017-05-05T11:59:31.800Z,3.60
2017-05-05T12:01:59.515Z,2.83
2017-05-05T12:04:27.236Z,3.88
2017-05-05T12:06:55.136Z,4.40
2017-05-05T12:09:22.856Z,4.00
2017-05-05T12:11:50.583Z,4.53
2017-05-05T12:14:18.340Z,4.45
2017-05-05T12:16:46.059Z,4.17
2017-05-05T12:19:13.780Z,3.73
2017-05-05T12:21:43.260Z,4.77
2017-05-05T12:24:10.985Z,4.42
2017-05-05T12:26:38.722Z,6.20
2017-05-05T12:29:06.489Z,4.35
2017-05-05T12:31:34.221Z,4.27
2017-05-05T12:34:02.700Z,4.13
2017-05-05T12:36:30.660Z,4.25
2017-05-05T12:38:58.390Z,5.07
2017-05-05T12:41:26.126Z,4.68
2017-05-05T12:43:55.055Z,3.20
2017-05-05T12:46:22.781Z,4.57
2017-05-05T12:48:50.508Z,4.20
2017-05-05T12:51:19.292Z,4.35
2017-05-05T12:53:47.016Z,4.08
2017-05-05T12:56:14.746Z,3.60
2017-05-05T12:58:43.076Z,3.68
2017-05-05T13:01:10.803Z,4.10
2017-05-05T13:03:38.524Z,4.05
2017-05-05T13:06:06.388Z,4.48
2017-05-05T13:08:34.127Z,4.57
2017-05-05T13:11:01.860Z,3.92
2017-05-05T13:13:29.627Z,3.37
2017-05-05T13:15:57.356Z,3.82
2017-05-05T13:18:25.831Z,3.75
2017-05-05T13:20:54.318Z,3.30
2017-05-05T13:23:22.788Z,4.23
2017-05-05T13:25:51.276Z,4.95
2017-05-05T13:28:19.788Z,4.13
2017-05-05T13:30:47.540Z,3.85
2017-05-05T13:33:15.275Z,4.35
2017-05-05T13:35:44.372Z,3.58
2017-05-05T13:38:12.884Z,3.60
2017-05-05T13:40:40.622Z,3.50
2017-05-05T13:43:09.116Z,4.28
2017-05-05T13:45:36.860Z,3.70
2017-05-05T13:48:05.341Z,4.08
2017-05-05T13:50:34.313Z,3.47
2017-05-05T13:53:02.044Z,3.05
2017-05-05T13:55:29.831Z,4.00
2017-05-05T13:57:57.829Z,4.42
2017-05-05T14:00:26.311Z,4.02
2017-05-05T14:02:54.791Z,4.04
2017-05-05T14:05:23.370Z,4.94
2017-05-05T14:07:51.855Z,4.10
2017-05-05T14:10:20.340Z,3.58
2017-05-05T14:12:48.315Z,3.90
2017-05-05T14:15:16.796Z,4.14
2017-05-05T14:17:45.301Z,3.66
2017-05-05T14:20:13.068Z,2.95
2017-05-05T14:22:40.831Z,3.88
2017-05-05T14:25:08.595Z,3.93
2017-05-05T14:27:36.343Z,4.48
2017-05-05T14:30:04.112Z,3.87
2017-05-05T14:32:31.855Z,4.18
2017-05-05T14:35:00.347Z,3.73
2017-05-05T14:37:28.091Z,4.10
2017-05-05T14:39:55.817Z,3.77
2017-05-05T14:42:23.559Z,4.17
2017-05-05T14:44:51.325Z,4.65
2017-05-05T14:47:19.056Z,3.12
2017-05-05T14:49:46.801Z,4.97
2017-05-05T14:52:14.548Z,4.12
2017-05-05T14:54:42.294Z,4.80
2017-05-05T14:57:11.651Z,4.45
2017-05-05T14:59:39.419Z,5.05
2017-05-05T15:02:07.158Z,4.43
2017-05-05T15:04:34.889Z,3.98
2017-05-05T15:07:02.624Z,4.00
2017-05-05T15:09:30.348Z,4.32
2017-05-05T15:11:58.082Z,3.95
2017-05-05T15:14:25.828Z,4.17
2017-05-05T15:16:53.548Z,4.55
2017-05-05T15:19:21.324Z,4.60
2017-05-05T15:21:49.056Z,4.27
2017-05-05T15:24:16.820Z,4.12
2017-05-05T15:26:44.543Z,5.02
2017-05-05T15:29:12.263Z,4.57
2017-05-05T15:31:40.727Z,3.93
2017-05-05T15:34:08.461Z,4.42
2017-05-05T15:36:36.242Z,3.72
2017-05-05T15:39:03.982Z,3.65
2017-05-05T15:41:31.765Z,3.42
2017-05-05T15:43:59.911Z,3.65
2017-05-05T15:46:27.642Z,3.68
2017-05-05T15:48:55.375Z,3.75
2017-05-05T15:51:23.245Z,4.67
2017-05-05T15:53:50.999Z,6.18
2017-05-05T15:56:18.721Z,3.75
2017-05-05T15:58:46.596Z,3.78
2017-05-05T16:01:14.346Z,4.62
2017-05-05T16:03:42.108Z,4.35
2017-05-05T16:06:10.062Z,4.33
2017-05-05T16:08:37.804Z,3.65
2017-05-05T16:11:05.557Z,4.23
2017-05-05T16:13:33.317Z,4.08
2017-05-05T16:16:01.074Z,4.77
2017-05-05T16:18:28.812Z,4.90
2017-05-05T16:20:56.576Z,4.53
2017-05-05T16:23:24.305Z,5.42
2017-05-05T16:25:52.790Z,5.33
2017-05-05T16:28:20.813Z,4.77
2017-05-05T16:30:48.548Z,4.90
2017-05-05T16:33:16.271Z,4.67
2017-05-05T16:35:44.047Z,4.85
2017-05-05T16:38:11.783Z,4.17
2017-05-05T16:40:39.509Z,4.58
2017-05-05T16:43:07.258Z,4.67
2017-05-05T16:45:34.988Z,5.75
2017-05-05T16:48:02.741Z,4.60
2017-05-05T16:50:30.519Z,5.97
2017-05-05T16:52:58.254Z,6.30
2017-05-05T16:55:26.590Z,6.07
2017-05-05T16:57:54.347Z,6.47
2017-05-05T17:00:22.109Z,6.83
2017-05-05T17:02:49.858Z,6.70
2017-05-05T17:05:19.073Z,6.45
2017-05-05T17:07:46.813Z,6.90
2017-05-05T17:10:16.524Z,7.65
2017-05-05T17:12:45.213Z,6.48
2017-05-05T17:15:12.942Z,6.92
2017-05-05T17:17:40.674Z,5.52
2017-05-05T17:20:08.467Z,5.85
2017-05-05T17:22:36.195Z,6.28
2017-05-05T17:25:03.943Z,7.37
2017-05-05T17:27:31.888Z,6.17
2017-05-05T17:29:59.607Z,7.05
2017-05-05T17:32:27.336Z,6.25
2017-05-05T17:34:55.092Z,5.82
2017-05-05T17:37:23.592Z,6.13
2017-05-05T17:39:51.334Z,6.63
2017-05-05T17:42:19.085Z,6.88
2017-05-05T17:44:47.006Z,5.60
2017-05-05T17:47:14.759Z,5.63
2017-05-05T17:49:42.522Z,6.02
2017-05-05T17:52:10.259Z,6.32
2017-05-05T17:54:38.732Z,7.32
2017-05-05T17:57:06.652Z,6.45
2017-05-05T17:59:34.402Z,6.18
2017-05-05T18:02:02.124Z,6.97
2017-05-05T18:04:30.265Z,5.92
2017-05-05T18:06:57.996Z,6.23
2017-05-05T18:09:25.798Z,7.07
2017-05-05T18:11:54.100Z,6.25
2017-05-05T18:14:21.836Z,6.18
2017-05-05T18:16:49.572Z,5.92
2017-05-05T18:19:17.337Z,6.38
2017-05-05T18:21:45.080Z,5.13
2017-05-05T18:24:12.839Z,6.15
2017-05-05T18:26:41.309Z,6.25
2017-05-05T18:29:09.805Z,7.67
2017-05-05T18:31:37.576Z,7.47
2017-05-05T18:34:06.323Z,6.93
2017-05-05T18:36:34.039Z,8.75
2017-05-05T18:39:01.794Z,8.28
2017-05-05T18:41:29.567Z,7.62
2017-05-05T18:43:57.288Z,7.90
2017-05-05T18:46:25.753Z,8.77
2017-05-05T18:48:53.498Z,8.50
2017-05-05T18:51:21.239Z,9.05
2017-05-05T18:53:48.964Z,8.35
2017-05-05T18:56:17.469Z,7.75
2017-05-05T18:58:45.200Z,7.57
2017-05-05T19:01:12.940Z,9.73
2017-05-05T19:03:40.689Z,9.00
2017-05-05T19:06:08.420Z,7.07
2017-05-05T19:08:36.164Z,8.78
2017-05-05T19:11:05.269Z,7.03
2017-05-05T19:13:33.051Z,8.98
2017-05-05T19:16:00.847Z,9.20
2017-05-05T19:18:28.602Z,8.78
2017-05-05T19:20:56.391Z,7.23
2017-05-05T19:23:24.127Z,8.78
2017-05-05T19:25:52.255Z,8.48
2017-05-05T19:28:20.038Z,8.93
2017-05-05T19:30:47.793Z,7.03
2017-05-05T19:33:15.565Z,9.13
2017-05-05T19:35:43.294Z,9.55
2017-05-05T19:38:11.765Z,8.53
2017-05-05T19:40:40.273Z,10.40
2017-05-05T19:43:07.997Z,10.38
2017-05-05T19:45:35.740Z,9.08
2017-05-05T19:48:03.750Z,9.00
2017-05-05T19:50:32.212Z,9.18
2017-05-05T19:52:59.942Z,8.02
2017-05-05T19:55:28.163Z,9.85
2017-05-05T19:57:55.893Z,8.90
2017-05-05T20:00:23.611Z,8.30
2017-05-05T20:02:51.507Z,10.78
2017-05-05T20:05:19.231Z,10.72
2017-05-05T20:07:47.709Z,10.13
2017-05-05T20:10:16.604Z,11.13
2017-05-05T20:12:45.094Z,11.30
2017-05-05T20:15:13.560Z,11.87
2017-05-05T20:17:41.620Z,12.60
2017-05-05T20:20:09.336Z,10.38
2017-05-05T20:22:37.068Z,9.90
2017-05-05T20:25:05.122Z,11.37
2017-05-05T20:27:33.610Z,11.88
2017-05-05T20:30:01.347Z,11.28
2017-05-05T20:32:29.087Z,11.17
2017-05-05T20:34:56.816Z,11.53
2017-05-05T20:37:24.557Z,12.92
2017-05-05T20:39:54.123Z,12.30
2017-05-05T20:42:21.853Z,10.92
2017-05-05T20:44:49.579Z,10.07
2017-05-05T20:47:17.351Z,11.35
2017-05-05T20:49:45.082Z,10.50
2017-05-05T20:52:12.803Z,10.77
2017-05-05T20:54:40.572Z,9.95
2017-05-05T20:57:08.288Z,12.30
2017-05-05T20:59:36.044Z,11.03
2017-05-05T21:02:04.039Z,12.32
2017-05-05T21:04:31.794Z,12.22
2017-05-05T21:06:59.539Z,12.57
2017-05-05T21:09:27.268Z,12.10
2017-05-05T21:11:54.997Z,13.32
2017-05-05T21:14:23.488Z,11.80
2017-05-05T21:16:51.215Z,12.22
2017-05-05T21:19:18.944Z,12.12
2017-05-05T21:21:46.672Z,12.05
2017-05-05T21:24:14.901Z,14.25
2017-05-05T21:26:42.635Z,12.98
2017-05-05T21:29:10.408Z,11.70
2017-05-05T21:31:38.149Z,13.95
2017-05-05T21:34:05.879Z,12.00
2017-05-05T21:36:33.613Z,13.32
2017-05-05T21:39:01.336Z,12.33
2017-05-05T21:41:29.070Z,12.15
2017-05-05T21:43:56.801Z,13.10
2017-05-05T21:46:24.528Z,14.58
2017-05-05T21:48:52.247Z,11.82
2017-05-05T21:51:19.972Z,15.17
2017-05-05T21:53:47.693Z,15.05
2017-05-05T21:56:16.157Z,13.30
2017-05-05T21:58:43.892Z,12.92
2017-05-05T22:01:11.639Z,12.17
2017-05-05T22:03:39.831Z,13.72
2017-05-05T22:06:07.564Z,14.47
2017-05-05T22:08:35.290Z,13.78
2017-05-05T22:11:03.035Z,14.68
2017-05-05T22:13:30.768Z,14.92
2017-05-05T22:15:58.491Z,16.93
2017-05-05T22:18:26.959Z,14.62
2017-05-05T22:20:54.709Z,16.20
2017-05-05T22:23:22.439Z,14.20
2017-05-05T22:25:50.158Z,16.25
2017-05-05T22:28:19.655Z,16.58
2017-05-05T22:30:47.377Z,15.43
2017-05-05T22:33:15.100Z,15.23
2017-05-05T22:35:43.592Z,15.43
2017-05-05T22:38:11.328Z,16.85
2017-05-05T22:40:39.052Z,15.90
2017-05-05T22:43:06.772Z,15.93
2017-05-05T22:45:35.234Z,16.33
2017-05-05T22:48:02.960Z,18.03
2017-05-05T22:50:30.689Z,17.80
2017-05-05T22:52:58.555Z,18.87
2017-05-05T22:55:26.287Z,18.05
2017-05-05T22:57:54.024Z,17.83
2017-05-05T23:00:22.132Z,17.60
2017-05-05T23:02:50.604Z,18.88
2017-05-05T23:05:18.332Z,17.18
2017-05-05T23:07:46.385Z,17.35
2017-05-05T23:10:14.145Z,18.58
2017-05-05T23:12:41.890Z,18.98
2017-05-05T23:15:09.660Z,19.15
2017-05-05T23:17:37.425Z,18.27
2017-05-05T23:20:05.157Z,19.80
2017-05-05T23:22:32.969Z,19.10
2017-05-05T23:25:00.760Z,18.55
2017-05-05T23:27:28.571Z,21.62
2017-05-05T23:29:56.540Z,19.35
2017-05-05T23:32:25.064Z,22.05
2017-05-05T23:34:52.844Z,22.43
2017-05-05T23:37:21.104Z,20.05
2017-05-05T23:39:49.816Z,21.87
2017-05-05T23:42:17.540Z,19.43
2017-05-05T23:44:45.296Z,20.78
2017-05-05T23:47:13.019Z,18.75
2017-05-05T23:49:40.760Z,21.12
2017-05-05T23:52:08.916Z,18.85
2017-05-05T23:54:36.702Z,19.03
2017-05-05T23:57:04.483Z,19.45
2017-05-05T23:59:32.309Z,20.68
